Time;durP1;ratioP1;P1;durP2;ratioP2;P2;SDS_P1;SDS_P2;PMS_P1;PMS_P2;Temp;Humidity;BMP_temperature;BMP_pressure;BME280_temperature;BME280_humidity;BME280_pressure;Samples;Min_cycle;Max_cycle;Signal;HPM_P1;HPM_P2
2023/07/05 00:01:43;;;;;;;6.07;3.40;;;;;;;;;;4818361;29;20438;-74
2023/07/05 00:04:14;;;;;;;4.68;2.88;;;;;;;;;;4834253;29;20050;-74
2023/07/05 00:06:45;;;;;;;5.80;3.10;;;;;;;;;;4831727;29;20046;-74
2023/07/05 00:09:15;;;;;;;5.28;2.90;;;;;;;;;;4834088;29;20537;-73
2023/07/05 00:11:44;;;;;;;8.10;3.88;;;;;;;;;;4834682;29;20072;-74
2023/07/05 00:14:15;;;;;;;5.95;3.40;;;;;;;;;;4833805;29;20073;-74
2023/07/05 00:16:47;;;;;;;10.07;3.35;;;;;;;;;;4835189;29;20046;-74
2023/07/05 00:19:18;;;;;;;7.80;3.47;;;;;;;;;;4833579;29;20133;-73
2023/07/05 00:21:48;;;;;;;5.95;3.60;;;;;;;;;;4832855;29;20054;-75
2023/07/05 00:24:19;;;;;;;8.30;3.90;;;;;;;;;;4834175;29;20062;-74
2023/07/05 00:26:49;;;;;;;5.63;3.60;;;;;;;;;;4834561;29;20049;-74
2023/07/05 00:29:20;;;;;;;7.90;3.53;;;;;;;;;;4818194;29;20065;-73
2023/07/05 00:31:50;;;;;;;6.53;4.38;;;;;;;;;;4834993;29;20061;-74
2023/07/05 00:34:25;;;;;;;10.93;4.15;;;;;;;;;;4834081;29;20142;-73
2023/07/05 00:36:56;;;;;;;12.85;5.10;;;;;;;;;;4817571;29;20061;-74
2023/07/05 00:39:27;;;;;;;13.18;4.93;;;;;;;;;;4803495;29;20078;-73
2023/07/05 00:41:57;;;;;;;11.73;6.05;;;;;;;;;;4817514;29;20054;-74
2023/07/05 00:44:30;;;;;;;17.73;8.25;;;;;;;;;;4817012;29;20054;-75
2023/07/05 00:47:25;;;;;;;10.23;5.30;;;;;;;;;;4834322;29;20049;-73
2023/07/05 00:50:03;;;;;;;12.77;6.53;;;;;;;;;;4834133;29;20809;-73
2023/07/05 00:52:33;;;;;;;11.48;6.82;;;;;;;;;;4817603;29;20057;-74
2023/07/05 00:55:04;;;;;;;11.02;6.72;;;;;;;;;;4833787;29;20049;-74
2023/07/05 00:57:37;;;;;;;13.07;7.13;;;;;;;;;;4802672;29;20109;-73
2023/07/05 01:00:12;;;;;;;8.80;5.60;;;;;;;;;;4834049;29;20053;-72
2023/07/05 01:02:47;;;;;;;13.63;6.88;;;;;;;;;;4840250;29;20081;-73
2023/07/05 01:05:20;;;;;;;13.05;7.55;;;;;;;;;;4840411;29;20053;-73
2023/07/05 01:07:51;;;;;;;13.20;6.32;;;;;;;;;;4823540;29;20061;-73
2023/07/05 01:10:24;;;;;;;12.15;5.22;;;;;;;;;;4840225;29;20054;-73
2023/07/05 01:13:11;;;;;;;13.85;6.45;;;;;;;;;;4824127;29;20058;-73
2023/07/05 01:15:57;;;;;;;8.60;4.72;;;;;;;;;;4823074;29;20053;-73
2023/07/05 01:18:46;;;;;;;11.18;5.38;;;;;;;;;;4839930;29;20061;-73
2023/07/05 01:21:35;;;;;;;8.32;4.75;;;;;;;;;;4822308;29;20050;-73
2023/07/05 01:24:35;;;;;;;9.98;4.55;;;;;;;;;;4838434;29;20069;-73
2023/07/05 01:27:33;;;;;;;11.00;4.35;;;;;;;;;;4837703;29;20054;-74
2023/07/05 01:30:09;;;;;;;8.90;4.93;;;;;;;;;;4837708;29;20391;-74
2023/07/05 01:32:53;;;;;;;5.22;4.20;;;;;;;;;;4837715;29;20052;-73
2023/07/05 01:35:33;;;;;;;10.15;4.10;;;;;;;;;;4821235;29;20088;-72
2023/07/05 01:38:06;;;;;;;6.60;3.88;;;;;;;;;;4838351;29;20050;-73
2023/07/05 01:40:39;;;;;;;6.00;3.83;;;;;;;;;;4822468;29;20073;-73
2023/07/05 01:43:13;;;;;;;8.23;3.92;;;;;;;;;;4839947;29;20070;-73
2023/07/05 01:45:46;;;;;;;7.32;4.70;;;;;;;;;;4839199;29;20413;-72
2023/07/05 01:48:49;;;;;;;7.88;4.15;;;;;;;;;;4839929;29;20643;-73
2023/07/05 01:51:40;;;;;;;7.80;4.03;;;;;;;;;;4839058;29;20066;-73
2023/07/05 01:54:13;;;;;;;10.35;3.88;;;;;;;;;;4839715;29;20050;-73
2023/07/05 01:56:55;;;;;;;7.57;3.42;;;;;;;;;;4839602;29;20049;-72
2023/07/05 01:59:35;;;;;;;7.18;3.90;;;;;;;;;;4822508;29;20063;-73
2023/07/05 02:02:08;;;;;;;7.78;4.05;;;;;;;;;;4822755;29;20072;-73
2023/07/05 02:04:42;;;;;;;6.95;3.10;;;;;;;;;;4839052;29;20060;-73
2023/07/05 02:07:12;;;;;;;6.30;3.40;;;;;;;;;;4822874;29;20057;-73
2023/07/05 02:09:43;;;;;;;7.05;3.78;;;;;;;;;;4822456;29;20057;-74
2023/07/05 02:12:15;;;;;;;10.48;3.40;;;;;;;;;;4822079;29;20054;-73
2023/07/05 02:14:48;;;;;;;5.60;3.30;;;;;;;;;;4818866;29;20050;-73
2023/07/05 02:17:20;;;;;;;7.10;3.67;;;;;;;;;;4836142;29;20064;-72
2023/07/05 02:19:50;;;;;;;9.27;4.05;;;;;;;;;;4836378;29;20123;-73
2023/07/05 02:22:21;;;;;;;12.23;3.20;;;;;;;;;;4820013;29;20058;-72
2023/07/05 02:24:54;;;;;;;15.48;3.50;;;;;;;;;;4836595;29;20062;-73
2023/07/05 02:27:28;;;;;;;7.15;3.45;;;;;;;;;;4819653;29;20054;-73
2023/07/05 02:29:58;;;;;;;7.82;3.40;;;;;;;;;;4836770;29;20053;-73
2023/07/05 02:32:28;;;;;;;12.02;3.40;;;;;;;;;;4836512;29;20054;-73
2023/07/05 02:35:02;;;;;;;10.75;3.35;;;;;;;;;;4835955;29;20061;-73
2023/07/05 02:37:33;;;;;;;9.90;3.60;;;;;;;;;;4819398;29;20490;-72
2023/07/05 02:40:06;;;;;;;8.20;3.00;;;;;;;;;;4818835;29;20058;-73
2023/07/05 02:42:38;;;;;;;5.13;2.83;;;;;;;;;;4819852;29;20518;-73
2023/07/05 02:45:08;;;;;;;5.82;3.05;;;;;;;;;;4836406;29;20076;-73
2023/07/05 02:47:38;;;;;;;5.13;2.75;;;;;;;;;;4836345;29;20053;-73
2023/07/05 02:50:09;;;;;;;7.38;3.22;;;;;;;;;;4819307;29;20077;-73
2023/07/05 02:52:40;;;;;;;4.07;2.67;;;;;;;;;;4836455;29;20054;-73
2023/07/05 02:55:10;;;;;;;4.35;3.00;;;;;;;;;;4836373;29;20528;-73
2023/07/05 02:57:41;;;;;;;6.75;3.53;;;;;;;;;;4819288;29;20534;-73
2023/07/05 03:00:15;;;;;;;5.65;3.45;;;;;;;;;;4836381;29;20061;-73
2023/07/05 03:02:45;;;;;;;5.30;3.03;;;;;;;;;;4818962;29;20065;-73
2023/07/05 03:05:19;;;;;;;6.20;3.50;;;;;;;;;;4819082;29;20140;-73
2023/07/05 03:07:49;;;;;;;4.18;2.78;;;;;;;;;;4836449;29;20058;-73
2023/07/05 03:10:20;;;;;;;5.95;3.17;;;;;;;;;;4835809;29;20054;-73
2023/07/05 03:12:52;;;;;;;5.70;3.10;;;;;;;;;;4834850;29;20069;-73
2023/07/05 03:15:23;;;;;;;6.82;2.92;;;;;;;;;;4804451;29;20069;-73
2023/07/05 03:17:53;;;;;;;5.93;2.58;;;;;;;;;;4836130;29;20560;-73
2023/07/05 03:20:25;;;;;;;4.90;2.88;;;;;;;;;;4835878;29;20502;-73
2023/07/05 03:22:57;;;;;;;5.38;3.20;;;;;;;;;;4835831;29;20050;-73
2023/07/05 03:25:27;;;;;;;5.05;2.90;;;;;;;;;;4818417;29;20069;-73
2023/07/05 03:27:57;;;;;;;5.13;2.90;;;;;;;;;;4835629;29;20064;-72
2023/07/05 03:30:28;;;;;;;4.85;2.75;;;;;;;;;;4819003;29;20065;-73
2023/07/05 03:33:01;;;;;;;4.82;3.05;;;;;;;;;;4820072;29;20058;-73
2023/07/05 03:35:32;;;;;;;9.52;3.90;;;;;;;;;;4818475;29;20066;-73
2023/07/05 03:38:02;;;;;;;4.80;2.53;;;;;;;;;;4834987;29;20056;-74
2023/07/05 03:40:32;;;;;;;;;;;;;;;;;;4835901;29;20496;-73
2023/07/05 03:43:02;;;;;;;6.13;2.90;;;;;;;;;;4819093;29;20442;-73
2023/07/05 03:45:35;;;;;;;5.57;3.20;;;;;;;;;;4835282;29;20061;-73
2023/07/05 03:48:07;;;;;;;6.05;3.78;;;;;;;;;;4818307;29;20426;-73
2023/07/05 03:50:37;;;;;;;8.02;3.33;;;;;;;;;;4834819;29;20050;-73
2023/07/05 03:53:07;;;;;;;6.05;2.78;;;;;;;;;;4835347;29;20042;-73
2023/07/05 03:55:37;;;;;;;6.63;3.38;;;;;;;;;;4835154;29;20062;-73
2023/07/05 03:58:09;;;;;;;4.68;3.38;;;;;;;;;;4834820;29;20064;-73
2023/07/05 04:00:39;;;;;;;5.20;3.25;;;;;;;;;;4834871;29;20443;-73
2023/07/05 04:03:12;;;;;;;4.97;2.88;;;;;;;;;;4834898;29;20062;-73
2023/07/05 04:05:42;;;;;;;5.78;2.80;;;;;;;;;;4834546;29;20049;-72
2023/07/05 04:08:13;;;;;;;4.60;3.33;;;;;;;;;;4835474;29;20399;-72
2023/07/05 04:10:48;;;;;;;6.32;3.42;;;;;;;;;;4834564;29;20054;-74
2023/07/05 04:13:19;;;;;;;5.22;2.97;;;;;;;;;;4834588;29;20053;-73
2023/07/05 04:16:13;;;;;;;6.80;3.25;;;;;;;;;;4834300;29;20509;-73
2023/07/05 04:18:46;;;;;;;4.80;3.10;;;;;;;;;;4826570;29;20065;-73
2023/07/05 04:21:18;;;;;;;4.95;3.20;;;;;;;;;;4834687;29;20042;-72
2023/07/05 04:23:50;;;;;;;5.00;2.95;;;;;;;;;;4834495;29;20522;-72
2023/07/05 04:26:23;;;;;;;7.55;3.95;;;;;;;;;;4834603;29;20061;-73
2023/07/05 04:28:54;;;;;;;4.68;3.13;;;;;;;;;;4817400;29;20053;-73
2023/07/05 04:31:29;;;;;;;5.03;3.30;;;;;;;;;;4833985;29;20061;-73
2023/07/05 04:34:01;;;;;;;5.78;3.00;;;;;;;;;;4834807;29;20057;-73
2023/07/05 04:36:31;;;;;;;5.95;2.72;;;;;;;;;;4833488;29;20049;-73
2023/07/05 04:39:02;;;;;;;8.05;2.88;;;;;;;;;;4834506;29;20058;-73
2023/07/05 04:41:33;;;;;;;6.80;3.70;;;;;;;;;;4834232;29;20057;-73
2023/07/05 04:44:06;;;;;;;5.63;2.92;;;;;;;;;;4834795;29;20053;-73
2023/07/05 04:46:36;;;;;;;11.23;3.38;;;;;;;;;;4834027;29;20057;-73
2023/07/05 04:49:07;;;;;;;5.80;3.22;;;;;;;;;;4833796;29;20061;-73
2023/07/05 04:51:38;;;;;;;6.47;2.72;;;;;;;;;;4833938;29;20054;-73
2023/07/05 04:54:08;;;;;;;5.35;2.83;;;;;;;;;;4817327;29;20057;-72
2023/07/05 04:56:39;;;;;;;5.47;3.08;;;;;;;;;;4834507;29;20058;-72
2023/07/05 04:59:13;;;;;;;4.93;2.83;;;;;;;;;;4834002;29;20058;-73
2023/07/05 05:01:44;;;;;;;5.63;3.20;;;;;;;;;;4834340;29;20050;-73
2023/07/05 05:04:16;;;;;;;5.43;2.92;;;;;;;;;;4818111;29;20057;-73
2023/07/05 05:06:47;;;;;;;4.95;3.00;;;;;;;;;;4833718;29;20077;-73
2023/07/05 05:09:18;;;;;;;5.30;3.10;;;;;;;;;;4834082;29;20510;-73
2023/07/05 05:11:49;;;;;;;7.82;3.78;;;;;;;;;;4834001;29;20058;-73
2023/07/05 05:14:19;;;;;;;6.40;3.22;;;;;;;;;;4834162;29;20433;-73
2023/07/05 05:16:49;;;;;;;6.97;3.80;;;;;;;;;;4818041;29;20065;-72
2023/07/05 05:19:19;;;;;;;7.43;3.20;;;;;;;;;;4833995;29;20057;-73
2023/07/05 05:21:51;;;;;;;5.05;3.08;;;;;;;;;;4833685;29;20058;-72
2023/07/05 05:24:21;;;;;;;5.07;3.15;;;;;;;;;;4834072;29;20065;-73
2023/07/05 05:26:54;;;;;;;6.78;3.35;;;;;;;;;;4834019;29;20054;-73
2023/07/05 05:29:24;;;;;;;5.47;3.30;;;;;;;;;;4834130;29;20069;-73
2023/07/05 05:31:57;;;;;;;4.78;3.00;;;;;;;;;;4833848;29;20061;-72
2023/07/05 05:34:28;;;;;;;5.35;3.17;;;;;;;;;;4817598;29;20544;-73
2023/07/05 05:36:59;;;;;;;5.10;3.00;;;;;;;;;;4833211;29;20080;-72
2023/07/05 05:39:29;;;;;;;4.50;3.20;;;;;;;;;;4834029;29;20490;-73
2023/07/05 05:41:59;;;;;;;;;;;;;;;;;;4818289;29;20395;-73
2023/07/05 05:44:30;;;;;;;5.22;2.78;;;;;;;;;;4834092;29;19933;-73
2023/07/05 05:47:00;;;;;;;4.75;2.92;;;;;;;;;;4834600;29;20057;-73
2023/07/05 05:49:30;;;;;;;7.10;3.00;;;;;;;;;;4836755;29;20061;-72
2023/07/05 05:52:00;;;;;;;5.93;2.72;;;;;;;;;;4837053;29;20054;-73
2023/07/05 05:54:31;;;;;;;6.28;3.03;;;;;;;;;;4836340;29;20506;-73
2023/07/05 05:57:03;;;;;;;4.80;2.60;;;;;;;;;;4837027;29;20070;-73
2023/07/05 05:59:34;;;;;;;3.90;2.40;;;;;;;;;;4806573;29;20511;-73
2023/07/05 06:02:05;;;;;;;3.33;2.30;;;;;;;;;;4837363;29;20053;-73
2023/07/05 06:04:36;;;;;;;4.80;3.05;;;;;;;;;;4820707;29;20038;-73
2023/07/05 06:07:08;;;;;;;5.25;2.50;;;;;;;;;;4836974;29;20053;-72
2023/07/05 06:09:43;;;;;;;3.20;2.45;;;;;;;;;;4837198;29;20054;-73
2023/07/05 06:12:14;;;;;;;5.28;2.83;;;;;;;;;;4836775;29;20050;-73
2023/07/05 06:14:45;;;;;;;5.22;2.63;;;;;;;;;;4837079;29;20058;-74
2023/07/05 06:17:15;;;;;;;4.70;2.60;;;;;;;;;;4820845;29;20069;-73
2023/07/05 06:19:46;;;;;;;3.25;1.92;;;;;;;;;;4836886;29;20057;-73
2023/07/05 06:22:16;;;;;;;4.70;2.17;;;;;;;;;;4836542;29;20408;-72
2023/07/05 06:24:47;;;;;;;3.72;2.00;;;;;;;;;;4835839;29;20660;-73
2023/07/05 06:27:17;;;;;;;3.38;2.15;;;;;;;;;;4836864;29;20070;-73
2023/07/05 06:29:49;;;;;;;3.33;2.08;;;;;;;;;;4836467;29;20172;-73
2023/07/05 06:32:18;;;;;;;;;;;;;;;;;;4837238;29;20058;-73
2023/07/05 06:34:49;;;;;;;3.40;2.28;;;;;;;;;;4836386;29;19929;-73
2023/07/05 06:37:21;;;;;;;4.28;2.90;;;;;;;;;;4836535;29;20064;-72
2023/07/05 06:39:53;;;;;;;6.93;2.17;;;;;;;;;;4836408;29;20505;-73
2023/07/05 06:42:24;;;;;;;3.83;1.92;;;;;;;;;;4835747;29;20523;-73
2023/07/05 06:45:06;;;;;;;4.38;2.08;;;;;;;;;;4833216;29;20065;-73
2023/07/05 06:47:38;;;;;;;5.03;2.42;;;;;;;;;;4833191;29;20441;-74
2023/07/05 06:50:13;;;;;;;4.15;2.67;;;;;;;;;;4833587;29;20806;-73
2023/07/05 06:52:45;;;;;;;6.47;2.13;;;;;;;;;;4817334;29;20399;-73
2023/07/05 06:55:16;;;;;;;5.70;2.35;;;;;;;;;;4833410;29;20428;-73
2023/07/05 06:57:47;;;;;;;4.25;1.85;;;;;;;;;;4833655;29;20060;-73
2023/07/05 07:00:19;;;;;;;2.95;2.25;;;;;;;;;;4832160;29;20049;-73
2023/07/05 07:02:49;;;;;;;3.95;2.25;;;;;;;;;;4833489;29;20418;-74
2023/07/05 07:05:19;;;;;;;4.93;1.85;;;;;;;;;;4833604;29;20057;-73
2023/07/05 07:07:51;;;;;;;4.07;2.50;;;;;;;;;;4833187;29;20074;-74
2023/07/05 07:10:22;;;;;;;3.47;2.55;;;;;;;;;;4832022;29;20050;-73
2023/07/05 07:12:53;;;;;;;3.08;2.15;;;;;;;;;;4832581;29;20054;-73
2023/07/05 07:15:23;;;;;;;3.92;2.38;;;;;;;;;;4833025;29;20060;-73
2023/07/05 07:17:53;;;;;;;3.22;2.22;;;;;;;;;;4833068;29;20072;-73
2023/07/05 07:20:27;;;;;;;3.22;2.63;;;;;;;;;;4832991;29;20057;-72
2023/07/05 07:22:59;;;;;;;3.75;1.95;;;;;;;;;;4832765;29;20053;-72
2023/07/05 07:25:29;;;;;;;2.88;2.20;;;;;;;;;;4832259;29;20053;-73
2023/07/05 07:28:00;;;;;;;6.07;1.85;;;;;;;;;;4833021;29;20062;-73
2023/07/05 07:30:31;;;;;;;3.47;2.80;;;;;;;;;;4832807;29;20062;-73
2023/07/05 07:33:02;;;;;;;4.57;2.40;;;;;;;;;;4833014;29;20058;-73
2023/07/05 07:35:32;;;;;;;4.45;2.60;;;;;;;;;;4832377;29;20060;-73
2023/07/05 07:38:07;;;;;;;5.93;2.20;;;;;;;;;;4815855;29;20053;-73
2023/07/05 07:40:37;;;;;;;;;;;;;;;;;;4833258;29;20081;-73
2023/07/05 07:43:08;;;;;;;7.75;2.83;;;;;;;;;;4833171;29;20582;-73
2023/07/05 07:45:39;;;;;;;4.68;2.50;;;;;;;;;;4832243;29;20054;-73
2023/07/05 07:48:10;;;;;;;2.95;2.05;;;;;;;;;;4832003;29;20061;-73
2023/07/05 07:50:39;;;;;;;;;;;;;;;;;;4832938;29;20061;-73
2023/07/05 07:53:09;;;;;;;3.30;2.00;;;;;;;;;;4832554;29;19928;-73
2023/07/05 07:55:39;;;;;;;;;;;;;;;;;;4835768;29;20065;-73
2023/07/05 07:58:10;;;;;;;3.10;2.22;;;;;;;;;;4835326;29;19924;-72
2023/07/05 08:00:40;;;;;;;4.35;2.40;;;;;;;;;;4834853;29;20195;-73
2023/07/05 08:03:10;;;;;;;4.07;2.80;;;;;;;;;;4835025;29;20053;-73
2023/07/05 08:05:41;;;;;;;4.40;2.40;;;;;;;;;;4818867;29;20502;-73
2023/07/05 08:08:12;;;;;;;6.18;2.33;;;;;;;;;;4835131;29;20058;-73
2023/07/05 08:10:44;;;;;;;7.50;2.22;;;;;;;;;;4834227;29;20076;-73
2023/07/05 08:13:13;;;;;;;;;;;;;;;;;;4834904;29;20159;-73
2023/07/05 08:15:44;;;;;;;3.83;2.30;;;;;;;;;;4834540;29;20274;-73
2023/07/05 08:18:14;;;;;;;4.68;2.30;;;;;;;;;;4835217;29;20053;-74
2023/07/05 08:20:46;;;;;;;4.00;2.20;;;;;;;;;;4834736;29;20046;-73
2023/07/05 08:23:17;;;;;;;8.13;2.47;;;;;;;;;;4834309;29;20404;-73
2023/07/05 08:25:57;;;;;;;4.68;3.17;;;;;;;;;;4833975;29;20050;-73
2023/07/05 08:28:28;;;;;;;6.53;3.00;;;;;;;;;;4834631;29;20060;-73
2023/07/05 08:31:02;;;;;;;4.72;2.50;;;;;;;;;;4834926;29;20061;-73
2023/07/05 08:33:36;;;;;;;7.32;3.00;;;;;;;;;;4834581;29;20050;-73
2023/07/05 08:36:10;;;;;;;5.53;2.97;;;;;;;;;;4834863;29;20061;-73
2023/07/05 08:38:54;;;;;;;5.88;2.72;;;;;;;;;;4834526;29;20054;-73
2023/07/05 08:41:34;;;;;;;3.95;2.17;;;;;;;;;;4834425;29;20065;-73
2023/07/05 08:44:17;;;;;;;6.40;2.65;;;;;;;;;;4834375;29;20430;-73
2023/07/05 08:47:00;;;;;;;4.35;2.72;;;;;;;;;;4834877;29;20077;-73
2023/07/05 08:49:49;;;;;;;3.95;2.38;;;;;;;;;;4834812;29;20049;-74
2023/07/05 08:52:50;;;;;;;5.10;2.25;;;;;;;;;;4834780;29;20058;-73
2023/07/05 08:55:27;;;;;;;3.63;2.00;;;;;;;;;;4834292;29;20062;-73
2023/07/05 08:57:58;;;;;;;5.32;1.95;;;;;;;;;;4834044;29;20053;-74
2023/07/05 09:00:45;;;;;;;4.65;2.58;;;;;;;;;;4834047;29;20057;-73
2023/07/05 09:03:17;;;;;;;4.32;2.28;;;;;;;;;;4833849;29;20058;-73
2023/07/05 09:06:10;;;;;;;4.65;2.28;;;;;;;;;;4818517;29;20501;-73
2023/07/05 09:08:59;;;;;;;4.38;2.33;;;;;;;;;;4834117;29;20054;-73
2023/07/05 09:11:35;;;;;;;4.10;2.50;;;;;;;;;;4817877;29;20054;-72
2023/07/05 09:14:42;;;;;;;2.88;2.20;;;;;;;;;;4834134;29;20065;-73
2023/07/05 09:17:18;;;;;;;;;;;;;;;;;;4834839;29;20057;-73
2023/07/05 09:20:17;;;;;;;5.18;2.40;;;;;;;;;;4834085;29;20647;-73
2023/07/05 09:22:49;;;;;;;9.57;2.30;;;;;;;;;;4835494;29;20062;-73
2023/07/05 09:25:24;;;;;;;5.57;2.22;;;;;;;;;;4837628;29;20546;-73
2023/07/05 09:28:36;;;;;;;6.93;2.33;;;;;;;;;;4837349;29;20058;-73
2023/07/05 09:31:14;;;;;;;4.38;1.90;;;;;;;;;;4837619;29;20058;-73
2023/07/05 09:33:55;;;;;;;4.82;2.17;;;;;;;;;;4837624;29;20050;-73
2023/07/05 09:36:28;;;;;;;4.60;2.35;;;;;;;;;;4837376;29;20441;-74
2023/07/05 09:39:13;;;;;;;4.28;2.50;;;;;;;;;;4837561;29;20050;-73
2023/07/05 09:41:51;;;;;;;15.43;2.35;;;;;;;;;;4837710;29;20054;-73
2023/07/05 09:44:21;;;;;;;8.50;2.33;;;;;;;;;;4837652;29;20430;-73
2023/07/05 09:46:52;;;;;;;6.45;2.30;;;;;;;;;;4837203;29;20046;-73
2023/07/05 09:49:23;;;;;;;4.78;2.20;;;;;;;;;;4837518;29;20085;-73
2023/07/05 09:51:54;;;;;;;6.35;2.15;;;;;;;;;;4837311;29;20057;-73
2023/07/05 09:54:31;;;;;;;6.75;2.20;;;;;;;;;;4837737;29;20050;-75
2023/07/05 09:57:04;;;;;;;5.05;2.50;;;;;;;;;;4837659;29;20391;-73
2023/07/05 09:59:37;;;;;;;4.13;2.78;;;;;;;;;;4837047;29;20418;-73
2023/07/05 10:02:12;;;;;;;5.85;2.10;;;;;;;;;;4838477;29;20053;-72
2023/07/05 10:04:53;;;;;;;3.33;2.20;;;;;;;;;;4837022;29;20045;-73
2023/07/05 10:07:27;;;;;;;4.38;2.03;;;;;;;;;;4836720;29;20058;-74
2023/07/05 10:10:07;;;;;;;6.10;2.25;;;;;;;;;;4836551;29;20045;-72
2023/07/05 10:12:40;;;;;;;6.53;2.83;;;;;;;;;;4837368;29;20049;-73
2023/07/05 10:15:21;;;;;;;5.28;1.95;;;;;;;;;;4837625;29;20054;-73
2023/07/05 10:17:55;;;;;;;3.95;2.17;;;;;;;;;;4836991;29;20527;-73
2023/07/05 10:20:38;;;;;;;12.80;2.92;;;;;;;;;;4836827;29;20390;-74
2023/07/05 10:23:18;;;;;;;7.30;2.60;;;;;;;;;;4836680;29;20054;-74
2023/07/05 10:25:49;;;;;;;3.25;2.35;;;;;;;;;;4837247;29;20045;-73
2023/07/05 10:28:29;;;;;;;5.13;2.83;;;;;;;;;;4836751;29;20064;-73
2023/07/05 10:31:03;;;;;;;4.05;2.28;;;;;;;;;;4836463;29;20053;-73
2023/07/05 10:33:37;;;;;;;;;;;;;;;;;;4836715;29;20414;-73
2023/07/05 10:36:10;;;;;;;3.63;2.15;;;;;;;;;;4836570;29;19928;-73
2023/07/05 10:38:41;;;;;;;5.13;2.30;;;;;;;;;;4836565;29;20057;-73
2023/07/05 10:41:12;;;;;;;5.53;1.80;;;;;;;;;;4835395;29;20533;-73
2023/07/05 10:43:53;;;;;;;;;;;;;;;;;;4837435;29;20057;-73
2023/07/05 10:46:25;;;;;;;5.40;2.30;;;;;;;;;;4837161;29;19936;-73
2023/07/05 10:48:58;;;;;;;3.58;2.25;;;;;;;;;;4836682;29;20057;-75
2023/07/05 10:51:39;;;;;;;3.78;2.20;;;;;;;;;;4836262;29;20041;-74
2023/07/05 10:54:23;;;;;;;2.97;2.20;;;;;;;;;;4836153;29;20814;-73
2023/07/05 10:56:53;;;;;;;5.47;1.98;;;;;;;;;;4836307;29;20053;-74
2023/07/05 11:00:11;;;;;;;5.18;2.08;;;;;;;;;;4836233;29;20510;-73
2023/07/05 11:03:23;;;;;;;4.10;1.77;;;;;;;;;;4813651;29;20062;-73
2023/07/05 11:05:58;;;;;;;7.60;2.00;;;;;;;;;;4835872;29;20077;-73
2023/07/05 11:08:31;;;;;;;3.58;1.63;;;;;;;;;;4835931;29;20058;-73
2023/07/05 11:11:47;;;;;;;5.40;1.98;;;;;;;;;;4836043;29;20065;-74
2023/07/05 11:14:18;;;;;;;2.97;1.63;;;;;;;;;;4760709;30;20051;-75
2023/07/05 11:16:50;;;;;;;4.30;1.83;;;;;;;;;;4830412;29;20072;-73
2023/07/05 11:19:25;;;;;;;4.93;1.70;;;;;;;;;;4836385;29;20620;-73
2023/07/05 11:21:58;;;;;;;2.85;1.52;;;;;;;;;;4836507;29;20061;-73
2023/07/05 11:24:38;;;;;;;3.95;1.42;;;;;;;;;;4835838;29;20077;-73
2023/07/05 11:27:29;;;;;;;3.20;1.55;;;;;;;;;;4835959;29;20042;-73
2023/07/05 11:29:59;;;;;;;3.65;1.63;;;;;;;;;;4835201;29;20050;-74
2023/07/05 11:33:02;;;;;;;3.78;1.80;;;;;;;;;;4836176;29;20048;-73
2023/07/05 11:35:50;;;;;;;8.77;2.00;;;;;;;;;;4829977;29;20073;-73
2023/07/05 11:38:40;;;;;;;3.55;1.42;;;;;;;;;;4834872;29;20058;-74
2023/07/05 11:41:27;;;;;;;5.45;1.50;;;;;;;;;;4835742;29;20062;-74
2023/07/05 11:44:24;;;;;;;6.30;1.50;;;;;;;;;;4835622;29;20050;-74
2023/07/05 11:46:55;;;;;;;2.50;1.42;;;;;;;;;;4835293;29;20129;-73
2023/07/05 11:49:34;;;;;;;6.47;1.65;;;;;;;;;;4835086;29;20061;-73
2023/07/05 11:52:25;;;;;;;4.15;1.60;;;;;;;;;;4818671;29;20050;-74
2023/07/05 11:55:44;;;;;;;3.70;1.73;;;;;;;;;;4835439;29;20049;-74
2023/07/05 11:58:24;;;;;;;3.80;1.70;;;;;;;;;;4741977;30;20079;-73
2023/07/05 12:01:05;;;;;;;2.97;1.52;;;;;;;;;;4728227;30;20060;-73
2023/07/05 12:03:45;;;;;;;3.53;1.60;;;;;;;;;;4806010;29;20562;-73
2023/07/05 12:06:33;;;;;;;3.80;1.75;;;;;;;;;;4835078;29;20049;-74
2023/07/05 12:09:08;;;;;;;4.07;1.38;;;;;;;;;;4835917;29;20555;-73
2023/07/05 12:11:40;;;;;;;2.75;1.75;;;;;;;;;;4834850;29;20050;-76
2023/07/05 12:14:14;;;;;;;3.72;1.70;;;;;;;;;;4834531;29;20049;-73
2023/07/05 12:16:46;;;;;;;1.40;1.20;;;;;;;;;;4834531;29;20054;-73
2023/07/05 12:19:31;;;;;;;3.22;1.60;;;;;;;;;;4834240;29;20053;-73
2023/07/05 12:22:04;;;;;;;4.07;1.58;;;;;;;;;;4834812;29;20065;-73
2023/07/05 12:24:50;;;;;;;2.42;1.70;;;;;;;;;;4835311;29;20054;-73
2023/07/05 12:27:24;;;;;;;6.30;1.88;;;;;;;;;;4834965;29;20046;-73
2023/07/05 12:29:57;;;;;;;2.50;1.73;;;;;;;;;;4834826;29;20058;-73
2023/07/05 12:32:29;;;;;;;2.53;1.73;;;;;;;;;;4834481;29;20046;-73
2023/07/05 12:35:22;;;;;;;2.88;1.77;;;;;;;;;;4817580;29;20054;-73
2023/07/05 12:37:58;;;;;;;2.72;1.80;;;;;;;;;;4834365;29;20402;-73
2023/07/05 12:40:34;;;;;;;4.93;2.10;;;;;;;;;;4818094;29;20431;-73
2023/07/05 12:43:08;;;;;;;3.67;1.80;;;;;;;;;;4834220;29;20046;-73
2023/07/05 12:45:40;;;;;;;3.40;1.50;;;;;;;;;;4834174;29;20046;-72
2023/07/05 12:48:15;;;;;;;3.60;1.77;;;;;;;;;;4834001;29;20050;-73
2023/07/05 12:50:45;;;;;;;4.85;2.33;;;;;;;;;;4834088;29;20076;-74
2023/07/05 12:53:20;;;;;;;2.80;1.75;;;;;;;;;;4834437;29;20049;-75
2023/07/05 12:55:58;;;;;;;3.13;1.70;;;;;;;;;;4834542;29;20609;-73
2023/07/05 12:58:29;;;;;;;4.30;1.58;;;;;;;;;;4833898;29;20577;-75
2023/07/05 13:01:00;;;;;;;7.82;1.92;;;;;;;;;;4834074;29;20053;-73
2023/07/05 13:03:32;;;;;;;9.95;2.33;;;;;;;;;;4834176;29;20061;-73
2023/07/05 13:06:04;;;;;;;6.97;2.55;;;;;;;;;;4834006;29;20487;-73
2023/07/05 13:08:36;;;;;;;17.92;2.55;;;;;;;;;;4818409;29;20049;-74
2023/07/05 13:11:06;;;;;;;6.47;2.20;;;;;;;;;;4833512;29;20057;-73
2023/07/05 13:13:37;;;;;;;5.30;2.00;;;;;;;;;;4834535;29;20065;-72
2023/07/05 13:16:24;;;;;;;4.13;1.80;;;;;;;;;;4834481;29;20065;-73
2023/07/05 13:19:04;;;;;;;4.40;1.77;;;;;;;;;;4833980;29;20081;-73
2023/07/05 13:21:49;;;;;;;7.25;2.10;;;;;;;;;;4833612;29;20045;-73
2023/07/05 13:24:27;;;;;;;8.90;2.53;;;;;;;;;;4834057;29;20050;-74
2023/07/05 13:26:58;;;;;;;5.35;2.17;;;;;;;;;;4834143;29;20046;-73
2023/07/05 13:29:37;;;;;;;8.23;2.22;;;;;;;;;;4834405;29;20065;-75
2023/07/05 13:32:23;;;;;;;9.35;2.58;;;;;;;;;;4816830;29;20537;-74
2023/07/05 13:34:53;;;;;;;4.88;2.35;;;;;;;;;;4834141;29;20061;-73
2023/07/05 13:37:27;;;;;;;4.35;2.35;;;;;;;;;;4834199;29;20062;-74
2023/07/05 13:40:09;;;;;;;7.45;2.65;;;;;;;;;;4833417;29;20514;-74
2023/07/05 13:42:41;;;;;;;6.35;3.50;;;;;;;;;;4834126;29;20050;-75
2023/07/05 13:45:24;;;;;;;13.63;3.58;;;;;;;;;;4817802;29;20064;-74
2023/07/05 13:47:58;;;;;;;15.98;5.20;;;;;;;;;;4833849;29;20058;-75
2023/07/05 13:50:32;;;;;;;;;;;;;;;;;;4834492;29;20064;-73
2023/07/05 13:53:04;;;;;;;8.52;2.92;;;;;;;;;;4817263;29;19933;-73
2023/07/05 13:55:35;;;;;;;8.65;2.70;;;;;;;;;;4833853;29;20054;-73
2023/07/05 13:58:09;;;;;;;5.80;3.03;;;;;;;;;;4834154;29;20061;-73
2023/07/05 14:00:44;;;;;;;6.93;2.97;;;;;;;;;;4833695;29;20065;-73
2023/07/05 14:03:14;;;;;;;6.60;2.83;;;;;;;;;;4835019;29;20054;-73
2023/07/05 14:05:44;;;;;;;6.03;2.70;;;;;;;;;;4834165;29;20057;-74
2023/07/05 14:08:16;;;;;;;6.55;3.03;;;;;;;;;;4835265;29;20054;-74
2023/07/05 14:10:50;;;;;;;5.63;3.00;;;;;;;;;;4836940;29;20418;-73
2023/07/05 14:13:21;;;;;;;12.68;3.45;;;;;;;;;;4837065;29;20046;-73
2023/07/05 14:15:56;;;;;;;12.02;3.83;;;;;;;;;;4836894;29;20052;-74
2023/07/05 14:18:27;;;;;;;8.05;3.25;;;;;;;;;;4837237;29;20045;-74
2023/07/05 14:20:59;;;;;;;5.30;3.13;;;;;;;;;;4837001;29;20057;-73
2023/07/05 14:23:29;;;;;;;11.02;3.72;;;;;;;;;;4836791;29;20062;-74
2023/07/05 14:26:00;;;;;;;8.40;3.45;;;;;;;;;;4837854;29;20049;-73
2023/07/05 14:28:33;;;;;;;10.98;3.45;;;;;;;;;;4838569;29;20049;-73
2023/07/05 14:31:04;;;;;;;12.63;3.63;;;;;;;;;;4837989;29;20069;-75
2023/07/05 14:33:34;;;;;;;13.85;3.40;;;;;;;;;;4837461;29;20737;-73
2023/07/05 14:36:06;;;;;;;13.07;3.90;;;;;;;;;;4836590;29;20422;-74
2023/07/05 14:38:37;;;;;;;10.48;3.75;;;;;;;;;;4836148;29;20061;-74
2023/07/05 14:41:11;;;;;;;9.50;4.32;;;;;;;;;;4837327;29;20054;-74
2023/07/05 14:43:42;;;;;;;11.60;3.13;;;;;;;;;;4836512;29;20050;-74
2023/07/05 14:46:12;;;;;;;9.07;3.35;;;;;;;;;;4836696;29;20054;-74
2023/07/05 14:48:44;;;;;;;13.57;3.60;;;;;;;;;;4836509;29;20833;-74
2023/07/05 14:51:24;;;;;;;20.98;3.63;;;;;;;;;;4835646;29;20053;-75
2023/07/05 14:53:55;;;;;;;16.27;4.55;;;;;;;;;;4836114;29;20403;-76
2023/07/05 14:56:26;;;;;;;13.90;4.05;;;;;;;;;;4836582;29;20050;-74
2023/07/05 14:58:56;;;;;;;17.83;3.72;;;;;;;;;;4836045;29;20050;-75
2023/07/05 15:01:34;;;;;;;11.07;3.42;;;;;;;;;;4836479;29;20057;-74
2023/07/05 15:04:04;;;;;;;14.10;3.53;;;;;;;;;;4836615;29;20046;-74
2023/07/05 15:06:36;;;;;;;11.13;3.20;;;;;;;;;;4835910;29;20054;-74
2023/07/05 15:09:10;;;;;;;10.98;4.43;;;;;;;;;;4836414;29;20588;-74
2023/07/05 15:11:42;;;;;;;11.10;4.22;;;;;;;;;;4835763;29;20422;-75
2023/07/05 15:14:13;;;;;;;9.82;5.25;;;;;;;;;;4836204;29;20056;-75
2023/07/05 15:16:43;;;;;;;8.68;5.05;;;;;;;;;;4835582;29;20050;-74
2023/07/05 15:19:14;;;;;;;9.52;4.85;;;;;;;;;;4836118;29;20065;-75
2023/07/05 15:21:48;;;;;;;10.50;4.72;;;;;;;;;;4835622;29;20435;-75
2023/07/05 15:24:20;;;;;;;9.32;3.63;;;;;;;;;;4835923;29;20057;-74
2023/07/05 15:26:51;;;;;;;11.55;4.00;;;;;;;;;;4836936;29;20076;-75
2023/07/05 15:29:21;;;;;;;8.35;3.85;;;;;;;;;;4836056;29;20066;-75
2023/07/05 15:31:54;;;;;;;5.88;3.70;;;;;;;;;;4836294;29;20050;-74